Time;durP1;ratioP1;P1;durP2;ratioP2;P2;SDS_P1;SDS_P2;PMS_P1;PMS_P2;Temp;Humidity;BMP_temperature;BMP_pressure;BME280_temperature;BME280_humidity;BME280_pressure;Samples;Min_cycle;Max_cycle;Signal;HPM_P1;HPM_P2
2023/01/23 00:01:57;;;;;;;14.48;6.43;;;2.50;99.90;;;;;;5037964;28;20052;-71
2023/01/23 00:04:23;;;;;;;13.13;5.80;;;3.00;99.90;;;;;;5032154;28;20037;-72
2023/01/23 00:06:49;;;;;;;17.38;5.68;;;2.50;99.90;;;;;;5021632;28;20750;-71
2023/01/23 00:09:15;;;;;;;12.52;5.45;;;3.10;99.90;;;;;;5036257;28;20200;-72
2023/01/23 00:11:40;;;;;;;18.95;7.47;;;2.80;99.90;;;;;;5019747;28;20135;-71
2023/01/23 00:14:06;;;;;;;20.77;6.57;;;2.60;99.90;;;;;;5056444;28;20098;-72
2023/01/23 00:16:32;;;;;;;18.58;7.68;;;2.50;99.90;;;;;;5040815;28;20123;-72
2023/01/23 00:18:58;;;;;;;16.65;6.30;;;2.50;99.90;;;;;;5037682;28;20068;-71
2023/01/23 00:21:26;;;;;;;14.07;5.35;;;2.50;99.90;;;;;;5038967;28;20045;-71
2023/01/23 00:23:55;;;;;;;13.27;5.45;;;2.90;99.90;;;;;;5036936;28;20098;-71
2023/01/23 00:26:24;;;;;;;20.52;6.78;;;2.50;99.90;;;;;;5034475;28;20271;-71
2023/01/23 00:28:50;;;;;;;17.85;6.55;;;2.60;99.90;;;;;;5033959;28;20102;-71
2023/01/23 00:31:19;;;;;;;21.45;6.70;;;2.60;99.90;;;;;;5019217;28;20147;-71
2023/01/23 00:33:45;;;;;;;17.42;6.10;;;3.20;99.90;;;;;;5017700;28;20032;-71
2023/01/23 00:36:12;;;;;;;16.63;5.78;;;2.60;99.90;;;;;;5015569;28;20053;-71
2023/01/23 00:38:39;;;;;;;14.55;6.15;;;2.50;99.90;;;;;;5041616;28;20059;-71
2023/01/23 00:41:05;;;;;;;15.90;5.95;;;2.50;99.90;;;;;;5036570;28;20127;-71
2023/01/23 00:43:31;;;;;;;17.35;7.63;;;2.50;99.90;;;;;;5033800;28;20073;-72
2023/01/23 00:45:57;;;;;;;17.42;6.15;;;2.50;99.90;;;;;;5032522;28;20080;-72
2023/01/23 00:48:23;;;;;;;13.00;5.93;;;2.50;99.90;;;;;;5035598;28;20451;-71
2023/01/23 00:50:49;;;;;;;17.92;6.43;;;3.30;99.90;;;;;;5052872;28;20133;-70
2023/01/23 00:53:15;;;;;;;17.02;6.07;;;2.50;99.90;;;;;;5030088;28;20083;-70
2023/01/23 00:55:41;;;;;;;15.07;5.95;;;2.50;99.90;;;;;;5038378;28;20049;-71
2023/01/23 00:58:07;;;;;;;16.80;5.95;;;2.50;99.90;;;;;;5037809;28;20044;-71
2023/01/23 01:00:34;;;;;;;12.48;5.38;;;2.50;99.90;;;;;;5036947;28;20401;-71
2023/01/23 01:03:00;;;;;;;15.93;5.72;;;2.50;99.90;;;;;;5050816;28;20433;-70
2023/01/23 01:05:26;;;;;;;13.40;6.18;;;2.60;99.90;;;;;;5040219;28;20095;-71
2023/01/23 01:07:52;;;;;;;14.13;5.70;;;2.60;99.90;;;;;;5030058;28;20065;-71
2023/01/23 01:10:18;;;;;;;22.63;6.75;;;2.60;99.90;;;;;;5033934;28;20045;-71
2023/01/23 01:12:45;;;;;;;18.45;6.50;;;2.60;99.90;;;;;;5039941;28;20317;-71
2023/01/23 01:15:11;;;;;;;20.13;7.05;;;2.60;99.90;;;;;;5039577;28;20527;-72
2023/01/23 01:17:37;;;;;;;18.00;6.55;;;2.50;99.90;;;;;;5050069;28;20461;-72
2023/01/23 01:20:04;;;;;;;16.27;6.63;;;2.50;99.90;;;;;;5035807;28;20052;-72
2023/01/23 01:22:30;;;;;;;15.30;5.90;;;2.60;99.90;;;;;;5029197;28;20066;-72
2023/01/23 01:24:56;;;;;;;16.13;6.47;;;2.50;99.90;;;;;;5058978;28;20052;-70
2023/01/23 01:27:22;;;;;;;18.35;6.80;;;2.60;99.90;;;;;;5047660;28;20041;-72
2023/01/23 01:29:48;;;;;;;22.88;8.43;;;2.60;99.90;;;;;;5052835;28;20076;-71
2023/01/23 01:32:14;;;;;;;18.27;7.00;;;2.60;99.90;;;;;;5034858;28;20068;-72
2023/01/23 01:34:40;;;;;;;18.40;7.15;;;2.60;99.90;;;;;;5041325;28;20120;-72
2023/01/23 01:37:05;;;;;;;21.58;7.13;;;2.60;99.90;;;;;;5016922;28;20143;-72
2023/01/23 01:39:31;;;;;;;19.70;6.22;;;2.60;99.90;;;;;;5058507;28;20163;-72
2023/01/23 01:41:57;;;;;;;13.98;6.28;;;2.60;99.90;;;;;;5044230;28;20108;-71
2023/01/23 01:44:23;;;;;;;18.88;6.00;;;2.60;99.90;;;;;;5037701;28;20067;-71
2023/01/23 01:46:50;;;;;;;24.20;7.97;;;2.60;99.90;;;;;;5038975;28;20447;-71
2023/01/23 01:49:30;;;;;;;18.40;7.25;;;2.60;99.90;;;;;;5016401;28;20402;-72
2023/01/23 01:52:04;;;;;;;14.95;6.47;;;2.60;99.90;;;;;;5039572;28;20033;-71
2023/01/23 01:54:49;;;;;;;15.05;6.45;;;3.40;99.90;;;;;;5056811;28;20052;-72
2023/01/23 01:57:26;;;;;;;12.65;6.28;;;2.60;99.90;;;;;;5017631;28;20123;-72
2023/01/23 01:59:51;;;;;;;13.15;6.35;;;2.60;99.90;;;;;;5032426;28;20040;-72
2023/01/23 02:02:24;;;;;;;14.95;6.47;;;2.90;99.90;;;;;;5023185;28;20056;-72
2023/01/23 02:04:56;;;;;;;23.77;7.88;;;2.60;99.90;;;;;;5036512;28;20938;-70
2023/01/23 02:07:47;;;;;;;17.05;6.40;;;2.60;99.90;;;;;;5030043;28;20070;-71
2023/01/23 02:10:13;;;;;;;41.55;12.90;;;2.60;99.90;;;;;;5037541;28;20151;-71
2023/01/23 02:12:39;;;;;;;47.50;14.30;;;2.60;99.90;;;;;;5036483;28;21552;-71
2023/01/23 02:15:07;;;;;;;26.00;9.05;;;2.60;99.90;;;;;;5022226;28;20048;-71
2023/01/23 02:17:37;;;;;;;17.10;7.13;;;2.60;99.90;;;;;;5021994;28;20139;-72
2023/01/23 02:20:20;;;;;;;27.23;8.75;;;2.60;99.90;;;;;;5026283;28;20049;-72
2023/01/23 02:22:58;;;;;;;15.45;5.75;;;2.60;99.90;;;;;;5045183;28;20044;-72
2023/01/23 02:25:44;;;;;;;18.52;6.22;;;2.60;99.90;;;;;;5027981;28;20098;-72
2023/01/23 02:28:11;;;;;;;16.52;6.22;;;2.60;99.90;;;;;;5022308;28;20055;-72
2023/01/23 02:30:41;;;;;;;15.18;5.55;;;2.60;99.90;;;;;;5039264;28;20037;-72
2023/01/23 02:33:27;;;;;;;12.73;5.80;;;2.60;99.90;;;;;;5047844;28;20047;-72
2023/01/23 02:35:53;;;;;;;17.25;5.53;;;2.60;99.90;;;;;;5015378;28;20044;-71
2023/01/23 02:38:24;;;;;;;13.95;6.18;;;2.60;99.90;;;;;;5023383;28;20056;-71
2023/01/23 02:40:53;;;;;;;14.73;6.03;;;2.60;99.90;;;;;;5042068;28;20036;-71
2023/01/23 02:43:24;;;;;;;12.60;5.75;;;2.50;99.90;;;;;;5037518;28;20079;-71
2023/01/23 02:45:52;;;;;;;12.82;5.40;;;2.60;99.90;;;;;;5019069;28;20059;-71
2023/01/23 02:48:18;;;;;;;16.30;6.40;;;2.60;99.90;;;;;;5032505;28;20051;-71
2023/01/23 02:50:45;;;;;;;13.60;6.43;;;2.50;99.90;;;;;;5052492;28;20053;-72
2023/01/23 02:53:11;;;;;;;16.30;6.55;;;2.60;99.90;;;;;;5037597;28;20044;-73
2023/01/23 02:55:41;;;;;;;13.43;5.70;;;2.60;99.90;;;;;;5035877;28;20041;-72
2023/01/23 03:00:51;;;;;;;13.07;5.63;;;2.50;99.90;;;;;;5033862;28;20753;-72
2023/01/23 03:03:16;;;;;;;14.43;5.45;;;3.20;99.90;;;;;;5063239;28;20068;-72
2023/01/23 03:05:42;;;;;;;15.48;6.18;;;2.50;99.90;;;;;;5037008;28;20040;-72
2023/01/23 03:08:08;;;;;;;15.95;6.50;;;2.50;99.90;;;;;;5039986;28;20040;-72
2023/01/23 03:10:34;;;;;;;14.85;6.35;;;2.50;99.90;;;;;;5032406;28;20052;-73
2023/01/23 03:13:06;;;;;;;18.65;6.40;;;2.80;99.90;;;;;;5038106;28;20410;-71
2023/01/23 03:15:33;;;;;;;19.50;6.90;;;2.50;99.90;;;;;;5035625;28;20370;-71
2023/01/23 03:17:59;;;;;;;26.08;8.35;;;2.50;99.90;;;;;;5058200;28;20170;-72
2023/01/23 03:20:25;;;;;;;16.20;6.72;;;2.50;99.90;;;;;;5021577;28;20040;-73
2023/01/23 03:22:55;;;;;;;13.45;5.85;;;2.50;99.90;;;;;;5037963;28;20041;-72
2023/01/23 03:25:20;;;;;;;15.00;6.00;;;2.50;99.90;;;;;;5044857;28;20051;-71
2023/01/23 03:27:46;;;;;;;22.85;8.20;;;2.50;99.90;;;;;;5055138;28;20036;-72
2023/01/23 03:30:15;;;;;;;14.38;7.68;;;2.50;99.90;;;;;;5048568;28;20150;-72
2023/01/23 03:32:45;;;;;;;13.75;6.38;;;2.50;99.90;;;;;;5051216;28;20047;-72
2023/01/23 03:35:21;;;;;;;11.93;5.65;;;2.50;99.90;;;;;;5036368;28;20047;-72
2023/01/23 03:37:48;;;;;;;13.70;5.90;;;2.50;99.90;;;;;;5038186;28;20098;-72
2023/01/23 03:43:09;;;;;;;12.75;6.15;;;2.50;99.90;;;;;;5033529;28;20151;-71
2023/01/23 03:45:35;;;;;;;14.65;6.82;;;2.50;99.90;;;;;;5039565;28;20045;-71
2023/01/23 03:48:01;;;;;;;13.55;6.32;;;2.50;99.90;;;;;;5041484;28;20051;-71
2023/01/23 03:50:27;;;;;;;15.20;6.28;;;2.50;99.90;;;;;;5038677;28;20313;-72
2023/01/23 03:52:52;;;;;;;13.75;6.47;;;2.40;99.90;;;;;;5039403;28;20144;-72
2023/01/23 03:55:18;;;;;;;12.32;6.07;;;2.50;99.90;;;;;;5039899;28;20056;-72
2023/01/23 03:57:44;;;;;;;15.85;6.63;;;2.50;99.90;;;;;;5056422;28;20041;-72
2023/01/23 04:00:12;;;;;;;14.35;6.47;;;2.40;99.90;;;;;;5011051;28;20407;-73
2023/01/23 04:02:38;;;;;;;12.52;5.82;;;2.40;99.90;;;;;;5041976;28;20048;-71
2023/01/23 04:05:04;;;;;;;12.98;5.97;;;2.40;99.90;;;;;;5034017;28;20047;-71
2023/01/23 04:07:30;;;;;;;14.52;5.93;;;2.40;99.90;;;;;;5051307;28;20056;-71
2023/01/23 04:09:56;;;;;;;12.93;6.13;;;2.40;99.90;;;;;;5018919;28;20668;-71
2023/01/23 04:12:21;;;;;;;12.50;5.82;;;2.50;99.90;;;;;;5040639;28;20075;-71
2023/01/23 04:14:47;;;;;;;13.52;5.95;;;2.40;99.90;;;;;;5049902;28;20055;-71
2023/01/23 04:17:13;;;;;;;14.52;5.65;;;2.40;99.90;;;;;;5037464;28;20044;-72
2023/01/23 04:19:39;;;;;;;15.73;6.30;;;2.50;99.90;;;;;;5016079;28;20071;-72
2023/01/23 04:22:04;;;;;;;11.55;5.80;;;2.40;99.90;;;;;;5020241;28;20048;-72
2023/01/23 04:24:30;;;;;;;12.20;5.88;;;2.40;99.90;;;;;;5015957;28;20050;-72
2023/01/23 04:26:56;;;;;;;15.30;6.45;;;2.40;99.90;;;;;;5025593;28;20052;-72
2023/01/23 04:29:21;;;;;;;12.27;6.90;;;2.40;99.90;;;;;;5034055;28;20047;-72
2023/01/23 04:31:47;;;;;;;15.90;6.20;;;2.40;99.90;;;;;;5017815;28;20048;-72
2023/01/23 04:34:13;;;;;;;14.32;5.45;;;2.40;99.90;;;;;;5030388;28;20048;-73
2023/01/23 04:36:39;;;;;;;11.70;6.05;;;2.40;99.90;;;;;;5035095;28;20037;-72
2023/01/23 04:39:04;;;;;;;13.50;5.72;;;2.40;99.90;;;;;;5023256;28;20051;-72
2023/01/23 04:41:31;;;;;;;16.60;5.95;;;2.40;99.90;;;;;;5023187;28;20036;-73
2023/01/23 04:44:42;;;;;;;13.55;6.05;;;2.50;99.90;;;;;;5029378;28;20040;-72
2023/01/23 04:46:43;;;;;;;16.25;5.80;;;2.40;99.90;;;;;;5034088;28;20041;-72
2023/01/23 04:49:09;;;;;;;12.85;6.10;;;2.50;99.90;;;;;;5019035;28;20546;-72
2023/01/23 04:51:36;;;;;;;12.25;6.15;;;2.50;99.90;;;;;;5058713;28;20135;-72
2023/01/23 04:54:02;;;;;;;12.43;6.13;;;2.50;99.90;;;;;;5033971;28;20059;-71
2023/01/23 04:56:27;;;;;;;12.77;5.78;;;2.40;99.90;;;;;;5050131;28;20045;-72
2023/01/23 04:58:53;;;;;;;12.40;6.38;;;2.70;99.90;;;;;;5032355;28;20036;-73
2023/01/23 05:01:22;;;;;;;17.35;5.82;;;2.40;99.90;;;;;;5032459;28;20106;-72
2023/01/23 05:03:48;;;;;;;11.52;5.85;;;2.40;99.90;;;;;;5009610;28;20080;-72
2023/01/23 05:06:14;;;;;;;10.52;5.95;;;3.50;99.90;;;;;;5032371;28;20082;-73
2023/01/23 05:08:40;;;;;;;15.55;6.78;;;2.40;99.90;;;;;;5034224;28;20095;-72
2023/01/23 05:11:06;;;;;;;12.63;6.10;;;2.40;99.90;;;;;;5060030;28;20116;-72
2023/01/23 05:13:31;;;;;;;13.65;6.70;;;2.40;99.90;;;;;;5061526;28;20056;-73
2023/01/23 05:15:57;;;;;;;19.58;6.40;;;2.40;99.90;;;;;;5042735;28;20094;-73
2023/01/23 05:18:23;;;;;;;14.75;6.63;;;2.40;99.90;;;;;;5043116;28;20037;-73
2023/01/23 05:20:48;;;;;;;10.82;6.00;;;2.40;99.90;;;;;;5036739;28;20110;-72
2023/01/23 05:23:14;;;;;;;13.48;6.55;;;2.40;99.90;;;;;;5033707;28;20135;-72
2023/01/23 05:25:40;;;;;;;9.95;5.88;;;2.90;99.90;;;;;;5038983;28;20084;-72
2023/01/23 05:28:06;;;;;;;12.07;6.85;;;2.40;99.90;;;;;;5043337;28;20052;-72
2023/01/23 05:30:32;;;;;;;14.63;6.53;;;2.40;99.90;;;;;;5040678;28;20114;-71
2023/01/23 05:32:57;;;;;;;12.25;6.95;;;2.40;99.90;;;;;;5034295;28;20049;-71
2023/01/23 05:35:23;;;;;;;13.07;6.80;;;2.40;99.90;;;;;;5036737;28;20521;-71
2023/01/23 05:37:50;;;;;;;13.88;7.30;;;2.40;99.90;;;;;;5024311;28;20045;-71
2023/01/23 05:40:16;;;;;;;10.77;6.28;;;2.40;99.90;;;;;;5034881;28;20579;-72
2023/01/23 05:42:42;;;;;;;20.85;8.02;;;2.40;99.90;;;;;;5015868;28;20443;-71
2023/01/23 05:45:08;;;;;;;16.35;7.35;;;2.40;99.90;;;;;;5054856;28;20048;-72
2023/01/23 05:47:34;;;;;;;17.15;8.18;;;2.40;99.90;;;;;;5016359;28;20048;-73
2023/01/23 05:50:00;;;;;;;17.33;7.55;;;2.40;99.90;;;;;;5058707;28;20041;-72
2023/01/23 05:52:26;;;;;;;18.92;7.05;;;2.40;99.90;;;;;;5058859;28;20037;-71
2023/01/23 05:54:52;;;;;;;14.23;7.70;;;2.40;99.90;;;;;;5038143;28;20032;-72
2023/01/23 05:57:18;;;;;;;13.75;6.53;;;2.40;99.90;;;;;;5040769;28;20662;-72
2023/01/23 05:59:44;;;;;;;18.58;8.35;;;2.40;99.90;;;;;;5039604;28;20029;-73
2023/01/23 06:02:10;;;;;;;12.88;7.95;;;2.40;99.90;;;;;;5040822;28;20063;-72
2023/01/23 06:04:35;;;;;;;15.07;7.80;;;2.40;99.90;;;;;;5060364;28;20044;-72
2023/01/23 06:07:01;;;;;;;15.65;7.25;;;2.40;99.90;;;;;;5024587;28;20048;-72
2023/01/23 06:09:27;;;;;;;15.77;8.00;;;2.70;99.90;;;;;;5022239;28;20712;-72
2023/01/23 06:11:52;;;;;;;15.32;8.00;;;2.40;99.90;;;;;;5021340;28;20052;-72
2023/01/23 06:14:18;;;;;;;17.10;8.27;;;2.70;99.90;;;;;;5037350;28;20119;-71
2023/01/23 06:16:44;;;;;;;14.77;7.80;;;2.50;99.90;;;;;;5022121;28;20060;-71
2023/01/23 06:19:10;;;;;;;19.10;8.50;;;2.40;99.90;;;;;;5033435;28;20497;-71
2023/01/23 06:21:36;;;;;;;18.45;8.38;;;2.40;99.90;;;;;;5042047;28;20512;-71
2023/01/23 06:24:02;;;;;;;16.20;8.90;;;3.20;99.90;;;;;;5039934;28;20041;-73
2023/01/23 06:26:28;;;;;;;16.23;8.52;;;2.40;99.90;;;;;;5021081;28;20053;-72
2023/01/23 06:28:53;;;;;;;16.77;9.23;;;2.40;99.90;;;;;;5025578;28;20048;-72
2023/01/23 06:31:19;;;;;;;18.25;8.95;;;3.10;99.90;;;;;;5053824;28;20572;-72
2023/01/23 06:33:51;;;;;;;17.83;8.35;;;2.70;99.90;;;;;;5056325;28;20041;-71
2023/01/23 06:36:17;;;;;;;17.33;8.10;;;2.40;99.90;;;;;;5023731;28;20053;-72
2023/01/23 06:38:43;;;;;;;17.30;8.52;;;2.40;99.90;;;;;;5018082;28;20386;-73
2023/01/23 06:41:09;;;;;;;19.48;9.15;;;2.50;99.90;;;;;;5033529;28;20140;-71
2023/01/23 06:43:35;;;;;;;17.40;9.50;;;2.40;99.90;;;;;;5055936;28;20075;-72
2023/01/23 06:46:01;;;;;;;21.63;8.93;;;2.40;99.90;;;;;;5028441;28;20127;-73
2023/01/23 06:48:26;;;;;;;16.52;8.88;;;2.50;99.90;;;;;;5034239;28;20044;-73
2023/01/23 06:50:52;;;;;;;19.63;9.02;;;2.60;99.90;;;;;;5040007;28;20041;-72
2023/01/23 06:53:18;;;;;;;18.25;8.45;;;2.40;99.90;;;;;;5017891;28;20036;-73
2023/01/23 06:55:44;;;;;;;20.80;9.38;;;2.40;99.90;;;;;;5059980;28;20041;-73
2023/01/23 06:58:09;;;;;;;18.60;8.48;;;2.40;99.90;;;;;;5035922;28;20336;-73
2023/01/23 07:00:35;;;;;;;16.25;9.10;;;2.40;99.90;;;;;;5038799;28;20032;-72
2023/01/23 07:03:03;;;;;;;16.63;9.23;;;2.40;99.90;;;;;;5055384;28;20040;-72
2023/01/23 07:05:30;;;;;;;19.17;9.15;;;2.40;99.90;;;;;;5039692;28;20040;-73
2023/01/23 07:07:56;;;;;;;19.67;9.20;;;2.40;99.90;;;;;;5056639;28;20036;-73
2023/01/23 07:10:22;;;;;;;16.30;9.23;;;2.40;99.90;;;;;;5041803;28;20640;-73
2023/01/23 07:12:49;;;;;;;20.13;9.65;;;2.70;99.90;;;;;;5040516;28;20130;-73
2023/01/23 07:15:15;;;;;;;19.10;9.13;;;2.40;99.90;;;;;;5057471;28;20061;-72
2023/01/23 07:17:41;;;;;;;18.38;9.30;;;2.40;99.90;;;;;;5042234;28;20041;-72
2023/01/23 07:20:08;;;;;;;16.85;9.00;;;3.10;99.90;;;;;;5041019;28;20059;-72
2023/01/23 07:22:33;;;;;;;18.13;8.68;;;2.40;99.90;;;;;;5038897;28;20067;-72
2023/01/23 07:24:59;;;;;;;18.77;9.20;;;2.40;99.90;;;;;;5023282;28;20048;-72
2023/01/23 07:27:25;;;;;;;18.23;9.40;;;2.40;99.90;;;;;;5024497;28;20064;-72
2023/01/23 07:29:51;;;;;;;18.38;9.13;;;2.30;99.90;;;;;;5056111;28;20041;-72
2023/01/23 07:32:17;;;;;;;21.92;8.93;;;2.40;99.90;;;;;;5021362;28;20410;-72
2023/01/23 07:34:42;;;;;;;16.35;9.27;;;2.60;99.90;;;;;;5040095;28;20048;-72
2023/01/23 07:37:08;;;;;;;17.00;8.95;;;2.40;99.90;;;;;;5038910;28;20055;-72
2023/01/23 07:39:34;;;;;;;20.63;10.43;;;2.50;99.90;;;;;;5023590;28;20051;-73
2023/01/23 07:42:00;;;;;;;17.08;9.38;;;2.50;99.90;;;;;;5057075;28;20094;-73
2023/01/23 07:44:26;;;;;;;20.88;10.40;;;2.50;99.90;;;;;;5041062;28;20048;-72
2023/01/23 07:46:51;;;;;;;18.80;9.10;;;2.30;99.90;;;;;;5035762;28;20044;-72
2023/01/23 07:49:17;;;;;;;22.70;10.10;;;2.70;99.90;;;;;;5041065;28;20228;-72
2023/01/23 07:51:43;;;;;;;17.15;9.40;;;2.40;99.90;;;;;;5057996;28;20850;-72
2023/01/23 07:54:09;;;;;;;15.02;8.65;;;2.30;99.90;;;;;;5057525;28;20037;-72
2023/01/23 07:56:35;;;;;;;16.98;8.70;;;2.40;99.90;;;;;;5058195;28;20207;-71
2023/01/23 07:59:01;;;;;;;17.80;8.88;;;2.30;99.90;;;;;;5040045;28;20123;-72
2023/01/23 08:01:26;;;;;;;20.30;9.98;;;2.30;99.90;;;;;;5054515;28;20292;-72
2023/01/23 08:03:53;;;;;;;16.88;9.38;;;2.30;99.90;;;;;;5055194;28;21339;-73
2023/01/23 08:06:19;;;;;;;17.73;8.98;;;2.30;99.90;;;;;;5035769;28;20044;-72
2023/01/23 08:08:47;;;;;;;17.88;9.55;;;2.30;99.90;;;;;;5031797;28;20060;-72
2023/01/23 08:11:13;;;;;;;18.73;9.18;;;2.30;99.90;;;;;;5017211;28;20048;-72
2023/01/23 08:13:39;;;;;;;18.70;9.73;;;2.30;99.90;;;;;;5036862;28;20051;-72
2023/01/23 08:16:06;;;;;;;19.55;9.50;;;2.30;99.90;;;;;;5020427;28;20071;-72
2023/01/23 08:18:32;;;;;;;18.95;9.10;;;2.30;99.90;;;;;;5021836;28;20048;-72
2023/01/23 08:21:02;;;;;;;17.52;8.48;;;2.40;99.90;;;;;;5039388;28;21455;-72
2023/01/23 08:23:33;;;;;;;18.20;9.18;;;2.30;99.90;;;;;;5023500;28;20056;-72
2023/01/23 08:26:02;;;;;;;16.50;8.98;;;2.30;99.90;;;;;;5021325;28;22281;-72
2023/01/23 08:28:28;;;;;;;19.33;9.00;;;2.30;99.90;;;;;;5022248;28;20521;-71
2023/01/23 08:30:54;;;;;;;16.50;8.20;;;2.40;99.90;;;;;;5037633;28;20046;-72
2023/01/23 08:33:21;;;;;;;15.32;8.18;;;2.60;99.90;;;;;;5036717;28;20051;-72
2023/01/23 08:35:51;;;;;;;15.20;8.30;;;2.40;99.90;;;;;;5057512;28;20123;-72
2023/01/23 08:38:18;;;;;;;20.70;8.45;;;2.40;99.90;;;;;;5057178;28;20056;-72
2023/01/23 08:40:48;;;;;;;15.95;7.57;;;2.40;99.90;;;;;;5035934;28;20048;-72
2023/01/23 08:43:14;;;;;;;13.50;8.15;;;2.40;99.90;;;;;;5037749;28;20053;-72
2023/01/23 08:45:41;;;;;;;15.35;8.18;;;2.40;99.90;;;;;;5019237;28;20737;-71
2023/01/23 08:48:07;;;;;;;16.25;7.93;;;2.40;99.90;;;;;;5038116;28;20033;-72
2023/01/23 08:50:33;;;;;;;14.70;7.60;;;2.40;99.90;;;;;;5024637;28;20516;-71
2023/01/23 08:53:02;;;;;;;14.90;7.30;;;2.40;99.90;;;;;;5057423;28;20048;-71
2023/01/23 08:55:28;;;;;;;13.50;8.20;;;1.80;99.90;;;;;;5058484;28;20045;-71
2023/01/23 08:57:54;;;;;;;13.82;7.50;;;2.80;99.90;;;;;;5041303;28;20049;-72
2023/01/23 09:00:20;;;;;;;14.48;7.78;;;2.40;99.90;;;;;;5023407;28;20391;-71
2023/01/23 09:02:46;;;;;;;15.35;7.47;;;2.50;99.90;;;;;;5038655;28;20037;-71
2023/01/23 09:05:13;;;;;;;13.05;6.80;;;2.50;99.90;;;;;;5038479;28;20087;-71
2023/01/23 09:07:39;;;;;;;12.70;7.05;;;2.60;99.90;;;;;;5040159;28;20048;-71
2023/01/23 09:10:06;;;;;;;11.70;6.25;;;2.50;99.90;;;;;;5041216;28;20135;-71
2023/01/23 09:12:32;;;;;;;12.77;7.32;;;2.50;99.90;;;;;;5038219;28;20108;-71
2023/01/23 09:14:58;;;;;;;12.88;7.03;;;2.50;99.90;;;;;;5039430;28;20412;-71
2023/01/23 09:17:24;;;;;;;14.85;6.78;;;2.50;99.90;;;;;;5056546;28;20053;-71
2023/01/23 09:19:50;;;;;;;14.27;6.75;;;2.60;99.90;;;;;;5057718;28;20493;-72
2023/01/23 09:22:16;;;;;;;11.38;6.40;;;2.60;99.90;;;;;;5022214;28;20049;-73
2023/01/23 09:24:42;;;;;;;12.00;6.43;;;2.60;99.90;;;;;;5058555;28;20048;-73
2023/01/23 09:27:08;;;;;;;13.02;7.05;;;2.70;99.90;;;;;;5057666;28;20561;-72
2023/01/23 09:29:35;;;;;;;11.20;6.55;;;2.60;99.90;;;;;;5023278;28;20067;-72
2023/01/23 09:32:01;;;;;;;10.77;5.68;;;3.10;99.90;;;;;;5037683;28;20055;-73
2023/01/23 09:34:28;;;;;;;11.63;6.07;;;2.60;99.90;;;;;;5039030;28;20045;-71
2023/01/23 09:36:54;;;;;;;12.18;5.88;;;2.60;99.90;;;;;;5037490;28;20772;-72
2023/01/23 09:39:19;;;;;;;10.40;5.97;;;2.60;99.90;;;;;;5037905;28;20135;-72
2023/01/23 09:41:47;;;;;;;14.18;6.68;;;2.90;99.90;;;;;;5020378;28;20044;-73
2023/01/23 09:44:15;;;;;;;12.98;6.00;;;2.70;99.90;;;;;;5037854;28;20056;-72
2023/01/23 09:46:44;;;;;;;10.27;5.85;;;2.70;99.90;;;;;;5022144;28;20044;-72
2023/01/23 09:49:40;;;;;;;10.88;5.35;;;2.70;99.90;;;;;;5020297;28;20052;-71
2023/01/23 09:52:15;;;;;;;11.60;6.13;;;2.70;99.90;;;;;;5056110;28;20041;-71
2023/01/23 09:54:43;;;;;;;10.23;5.78;;;2.70;99.90;;;;;;5038588;28;20040;-71
2023/01/23 09:57:17;;;;;;;11.38;5.47;;;2.70;99.90;;;;;;5040007;28;20055;-71
2023/01/23 10:00:05;;;;;;;11.07;5.45;;;2.90;99.90;;;;;;5042268;28;20037;-72
2023/01/23 10:02:32;;;;;;;11.57;5.63;;;2.80;99.90;;;;;;5055265;28;20059;-71
2023/01/23 10:05:01;;;;;;;10.40;5.32;;;2.80;99.90;;;;;;5059357;28;20051;-72
2023/01/23 10:07:37;;;;;;;6.88;2.55;;;2.80;99.90;;;;;;5061246;28;20456;-72
2023/01/23 10:10:31;;;;;;;8.07;3.70;;;2.80;99.90;;;;;;5028277;28;20044;-73
2023/01/23 10:13:08;;;;;;;8.48;4.28;;;2.80;99.90;;;;;;5043678;28;20165;-71
2023/01/23 10:15:55;;;;;;;9.65;4.68;;;2.80;99.90;;;;;;5042866;28;20048;-72
2023/01/23 10:18:40;;;;;;;10.35;4.78;;;2.80;99.90;;;;;;5040751;28;20101;-71
2023/01/23 10:21:31;;;;;;;7.97;4.45;;;2.80;99.90;;;;;;5043127;28;20052;-72
2023/01/23 10:24:22;;;;;;;8.50;4.57;;;2.90;99.90;;;;;;5042055;28;20744;-72
2023/01/23 10:26:48;;;;;;;8.32;4.68;;;2.90;99.90;;;;;;5040760;28;20751;-72
2023/01/23 10:29:37;;;;;;;9.88;5.45;;;2.90;99.90;;;;;;5032100;28;20037;-71
2023/01/23 10:32:05;;;;;;;8.55;4.78;;;2.90;99.90;;;;;;5019144;28;20284;-72
2023/01/23 10:35:17;;;;;;;8.10;4.03;;;2.90;99.90;;;;;;5041911;28;20045;-71
2023/01/23 10:37:52;;;;;;;8.38;4.35;;;2.90;99.90;;;;;;4997543;28;20826;-71
2023/01/23 10:43:19;;;;;;;6.93;3.92;;;2.90;99.90;;;;;;5055571;28;20049;-71
2023/01/23 10:45:46;;;;;;;7.00;3.72;;;3.00;99.90;;;;;;5056150;28;20056;-72
2023/01/23 10:48:31;;;;;;;8.02;4.55;;;3.00;99.90;;;;;;5010495;28;20078;-71
2023/01/23 10:50:57;;;;;;;7.35;4.10;;;3.00;99.90;;;;;;5034343;28;20059;-72
2023/01/23 10:53:24;;;;;;;8.10;4.10;;;3.00;99.90;;;;;;5035027;28;20044;-72
2023/01/23 10:55:52;;;;;;;7.95;4.20;;;3.00;99.90;;;;;;5023369;28;20713;-71
2023/01/23 10:58:30;;;;;;;9.80;4.55;;;3.00;99.90;;;;;;5035503;28;20044;-72
2023/01/23 11:00:56;;;;;;;7.75;4.55;;;3.00;99.90;;;;;;5053422;28;20270;-72
2023/01/23 11:03:29;;;;;;;8.00;4.60;;;3.10;99.90;;;;;;5032758;28;20508;-72
2023/01/23 11:06:04;;;;;;;9.15;4.15;;;3.10;99.90;;;;;;5036754;28;20134;-71
2023/01/23 11:08:31;;;;;;;8.98;3.92;;;3.10;99.90;;;;;;5038972;28;20060;-71
2023/01/23 11:11:16;;;;;;;9.90;4.47;;;3.10;99.90;;;;;;5040074;28;20131;-72
2023/01/23 11:13:43;;;;;;;11.27;4.85;;;3.10;99.90;;;;;;5040743;28;20056;-72
2023/01/23 11:16:20;;;;;;;8.68;4.95;;;3.10;99.90;;;;;;5024898;28;20051;-71
2023/01/23 11:18:56;;;;;;;10.18;5.07;;;3.20;99.90;;;;;;5039938;28;20055;-71
2023/01/23 11:21:47;;;;;;;9.18;5.72;;;3.20;99.90;;;;;;5040406;28;20128;-72
2023/01/23 11:24:24;;;;;;;11.57;6.22;;;3.20;99.90;;;;;;5046084;28;20048;-72
2023/01/23 11:27:14;;;;;;;12.00;6.47;;;3.20;99.90;;;;;;5047591;28;20076;-73
2023/01/23 11:29:47;;;;;;;13.52;6.15;;;3.20;99.90;;;;;;5055108;28;20048;-72
2023/01/23 11:32:15;;;;;;;12.65;6.63;;;3.20;99.90;;;;;;5056080;28;20048;-72
2023/01/23 11:34:50;;;;;;;11.65;6.63;;;3.60;99.90;;;;;;5041364;28;20059;-72
2023/01/23 11:37:16;;;;;;;13.05;6.78;;;3.20;99.90;;;;;;5030698;28;20049;-72
2023/01/23 11:39:51;;;;;;;13.45;7.28;;;3.30;99.90;;;;;;5049510;28;20203;-72
2023/01/23 11:42:18;;;;;;;13.48;6.53;;;3.30;99.90;;;;;;5029178;28;20084;-72
2023/01/23 11:44:46;;;;;;;13.45;7.40;;;3.30;99.90;;;;;;5026144;28;20682;-72
2023/01/23 11:47:30;;;;;;;11.60;7.47;;;3.40;99.90;;;;;;5016902;28;20047;-71
2023/01/23 11:50:13;;;;;;;14.57;7.80;;;3.30;99.90;;;;;;5036115;28;20063;-72
2023/01/23 11:52:42;;;;;;;13.82;7.32;;;3.30;99.90;;;;;;5036823;28;20384;-71
2023/01/23 11:55:37;;;;;;;12.68;7.43;;;3.40;99.90;;;;;;5020389;28;20064;-71
2023/01/23 11:58:27;;;;;;;13.90;8.02;;;3.40;99.90;;;;;;5040375;28;20105;-71
2023/01/23 12:01:19;;;;;;;13.00;7.47;;;3.40;99.90;;;;;;5032613;28;20489;-73
2023/01/23 12:04:38;;;;;;;12.20;6.75;;;3.40;99.90;;;;;;5022457;28;20141;-72
2023/01/23 12:07:10;;;;;;;11.45;7.03;;;3.40;99.90;;;;;;5030638;28;20040;-73
2023/01/23 12:09:38;;;;;;;;;;;3.40;99.90;;;;;;5023367;28;20107;-72
2023/01/23 12:12:47;;;;;;;13.88;7.53;;;3.40;99.90;;;;;;5043140;28;20369;-72
2023/01/23 12:15:42;;;;;;;12.65;7.15;;;3.40;99.90;;;;;;5041781;28;20090;-71
2023/01/23 12:18:47;;;;;;;12.07;6.63;;;3.40;99.90;;;;;;5046701;28;20032;-72
2023/01/23 12:21:32;;;;;;;9.95;6.22;;;3.40;99.90;;;;;;5029722;28;20508;-72
2023/01/23 12:24:12;;;;;;;10.68;6.65;;;3.40;99.90;;;;;;5029080;28;20044;-72
2023/01/23 12:26:58;;;;;;;9.23;5.05;;;3.40;99.90;;;;;;5012953;28;20135;-71
2023/01/23 12:30:10;;;;;;;6.60;3.08;;;3.50;99.90;;;;;;5042341;28;20710;-72
2023/01/23 12:32:49;;;;;;;5.22;2.67;;;3.40;99.90;;;;;;5009373;28;20056;-71
2023/01/23 12:35:36;;;;;;;5.20;2.58;;;3.40;99.90;;;;;;5024539;28;20055;-71
2023/01/23 12:38:02;;;;;;;3.58;1.73;;;3.40;99.90;;;;;;5012784;28;20325;-72
2023/01/23 12:41:02;;;;;;;3.83;1.83;;;3.40;99.90;;;;;;5039388;28;20052;-71
2023/01/23 12:43:47;;;;;;;5.75;2.20;;;3.50;99.90;;;;;;5008257;28;20191;-72
2023/01/23 12:46:25;;;;;;;4.85;2.08;;;3.40;99.90;;;;;;5040752;28;20055;-71
2023/01/23 12:49:21;;;;;;;4.45;2.00;;;3.40;99.90;;;;;;5004884;28;20131;-72
2023/01/23 12:52:18;;;;;;;3.45;1.60;;;3.40;99.90;;;;;;5027839;28;20052;-71
2023/01/23 12:54:54;;;;;;;4.78;2.33;;;3.40;99.90;;;;;;5044402;28;20044;-71
2023/01/23 12:57:38;;;;;;;7.90;3.78;;;3.40;99.90;;;;;;5013100;28;20131;-72
2023/01/23 13:00:24;;;;;;;8.30;4.55;;;3.40;99.90;;;;;;5026270;28;20634;-70
2023/01/23 13:02:55;;;;;;;7.50;4.78;;;3.40;99.90;;;;;;5036505;28;20044;-72
2023/01/23 13:05:42;;;;;;;9.10;5.40;;;3.40;99.90;;;;;;5022219;28;20056;-73
2023/01/23 13:08:38;;;;;;;10.05;5.18;;;3.40;99.90;;;;;;5027456;28;20599;-72
2023/01/23 13:13:58;;;;;;;8.98;5.28;;;3.40;99.90;;;;;;5026967;28;20049;-71
2023/01/23 13:16:31;;;;;;;10.80;5.25;;;3.40;99.90;;;;;;5013604;28;20405;-72